Keeseville, NY (12911)

5:50 AM EDT on July 26, 2016 (GMT -0400)
Northern Orchard | | Change Station

Elev 0 ft 44.56 °N, 73.54 °W | Updated 15 seconds ago

Clear
Clear
66.3 °F
Feels Like 66.3 °F
N
2.3
Wind Variable Wind from SSW
Gusts 3.0 mph

Today
High -- | Low -- °F
--% Chance of Precip.
Yesterday
High -- | Low -- °F
Precip. -- in
Pressure 29.75 in
Visibility 10.0 miles
Clouds Clear
Dew Point 61 °F
Humidity 83%
Rainfall 0.00 in
Snow Depth Not available.
5:34 AM 8:25 PM
Waning Gibbous, 56% visible
METAR KPBG 260853Z AUTO VRB05KT 10SM CLR 22/16 A2976 RMK AO2 SLP075 T02220161 53005
Pressure 29.75 in
Visibility 10.0 miles
Clouds Clear
Dew Point 61 °F
Humidity 83%
Rainfall 0.00 in
Snow Depth Not available.
5:34 AM 8:25 PM
Waning Gibbous, 56% visible
METAR KPBG 260853Z AUTO VRB05KT 10SM CLR 22/16 A2976 RMK AO2 SLP075 T02220161 53005

10-Day Weather Forecast

Almanac

Astronomy

Jul. 26, 2016 Rise Set
Actual Time
Civil Twilight
Nautical Twilight
Astronomical Twilight
Moon
Length of Visible Light
Length of Day
Tomorrow will be .
, % of the Moon is Illuminated

Today's Extremes

State Highs State Lows

Community

WunderPhotos

Upload Photos

1,927,557 photos uploaded!

WunderBlog® & News

Nearby

Air Quality

  Air Quality AQ Index Pollutant
Not available.

Snow Depth

Station Depth Elevation

Earthquake Activity

City Distance Mag. Time & Date
Minimum magnitude displayed is 2.5.

Coastal Water Temperatures

Place Temperature

Stations

Nearby Weather Stations

Station Location Temp. Windchill Dew Point Humidity Wind Precip. Elev Updated Type
                   

Watches & Warnings

There are currently no watches in effect.